Time;durP1;ratioP1;P1;durP2;ratioP2;P2;SDS_P1;SDS_P2;PMS_P1;PMS_P2;Temp;Humidity;BMP_temperature;BMP_pressure;BME280_temperature;BME280_humidity;BME280_pressure;Samples;Min_cycle;Max_cycle;Signal;HPM_P1;HPM_P2
2021/09/07 00:00:04;;;;;;;;;;;22.00;70.50;;;;;;5082600;28;20357;-59
2021/09/07 00:02:30;;;;;;;;;;;22.00;70.50;;;;;;5084207;28;19913;-57
2021/09/07 00:04:55;;;;;;;;;;;22.00;70.50;;;;;;5078773;28;19912;-59
2021/09/07 00:07:22;;;;;;;;;;;22.00;70.40;;;;;;5074025;28;19922;-58
2021/09/07 00:09:52;;;;;;;;;;;22.00;70.40;;;;;;5063622;28;21388;-58
2021/09/07 00:12:17;;;;;;;;;;;22.00;70.40;;;;;;5100019;28;19914;-58
2021/09/07 00:14:42;;;;;;;;;;;22.00;70.30;;;;;;5087169;28;20006;-59
2021/09/07 00:17:08;;;;;;;;;;;22.00;70.30;;;;;;5085352;28;19970;-58
2021/09/07 00:19:33;;;;;;;;;;;22.00;70.30;;;;;;5098371;28;19915;-57
2021/09/07 00:21:59;;;;;;;;;;;22.00;70.30;;;;;;5069187;28;19923;-58
2021/09/07 00:24:24;;;;;;;;;;;22.00;70.20;;;;;;5086689;28;19964;-57
2021/09/07 00:26:50;;;;;;;;;;;22.00;70.30;;;;;;5096337;28;19919;-56
2021/09/07 00:29:15;;;;;;;;;;;22.00;70.30;;;;;;5093698;28;20277;-58
2021/09/07 00:31:41;;;;;;;;;;;22.00;70.30;;;;;;5082357;28;19928;-58
2021/09/07 00:34:06;;;;;;;;;;;22.00;70.30;;;;;;5082097;28;20384;-62
2021/09/07 00:36:32;;;;;;;;;;;22.10;70.20;;;;;;5077081;28;19913;-59
2021/09/07 00:38:57;;;;;;;;;;;22.00;70.20;;;;;;5087212;28;19912;-59
2021/09/07 00:41:22;;;;;;;;;;;22.10;70.20;;;;;;5078405;28;19926;-59
2021/09/07 00:43:48;;;;;;;;;;;22.00;70.20;;;;;;5087181;28;20712;-55
2021/09/07 00:46:13;;;;;;;;;;;22.00;70.20;;;;;;5087212;28;19911;-58
2021/09/07 00:48:39;;;;;;;;;;;22.00;70.10;;;;;;5095092;28;19911;-57
2021/09/07 00:51:04;;;;;;;;;;;22.00;70.10;;;;;;5095923;28;19919;-57
2021/09/07 00:53:30;;;;;;;;;;;22.00;70.20;;;;;;5078971;28;20391;-58
2021/09/07 00:55:57;;;;;;;;;;;22.00;70.10;;;;;;5068619;28;20002;-55
2021/09/07 00:58:22;;;;;;;;;;;22.00;70.10;;;;;;5069324;28;20021;-57
2021/09/07 01:00:48;;;;;;;;;;;22.00;70.10;;;;;;5081220;28;20116;-57
2021/09/07 01:03:13;;;;;;;;;;;22.00;70.00;;;;;;5069456;28;20281;-58
2021/09/07 01:05:39;;;;;;;;;;;22.00;70.00;;;;;;5104460;28;19918;-58
2021/09/07 01:08:04;;;;;;;;;;;22.00;69.90;;;;;;5084167;28;19916;-58
2021/09/07 01:10:29;;;;;;;;;;;22.00;69.90;;;;;;5073203;28;20306;-58
2021/09/07 01:12:55;;;;;;;;;;;22.10;69.90;;;;;;5104950;28;19916;-58
2021/09/07 01:15:21;;;;;;;;;;;22.10;69.90;;;;;;5084523;28;19930;-58
2021/09/07 01:17:47;;;;;;;;;;;22.10;69.90;;;;;;5090580;28;19915;-58
2021/09/07 01:20:12;;;;;;;;;;;22.10;69.90;;;;;;5086897;28;19912;-57
2021/09/07 01:22:38;;;;;;;;;;;22.00;70.50;;;;;;5078633;28;19912;-57
2021/09/07 01:25:03;;;;;;;;;;;22.10;69.80;;;;;;5074311;28;19912;-57
2021/09/07 01:27:29;;;;;;;;;;;22.10;69.80;;;;;;5095130;28;20380;-55
2021/09/07 01:29:54;;;;;;;;;;;22.00;69.70;;;;;;5093635;28;19916;-58
2021/09/07 01:32:21;;;;;;;;;;;22.10;69.80;;;;;;5074280;28;19912;-58
2021/09/07 01:34:47;;;;;;;;;;;22.10;69.80;;;;;;5071456;28;19916;-57
2021/09/07 01:37:12;;;;;;;;;;;22.10;69.80;;;;;;5077095;28;19922;-55
2021/09/07 01:39:37;;;;;;;;;;;22.00;69.70;;;;;;5050648;28;19920;-58
2021/09/07 01:42:03;;;;;;;;;;;22.10;69.80;;;;;;5077610;28;19912;-56
2021/09/07 01:44:31;;;;;;;;;;;22.10;69.80;;;;;;5086513;28;19917;-58
2021/09/07 01:46:57;;;;;;;;;;;22.10;69.80;;;;;;5087188;28;20018;-58
2021/09/07 01:49:22;;;;;;;;;;;22.10;69.70;;;;;;5066101;28;20663;-59
2021/09/07 01:51:48;;;;;;;;;;;22.00;69.70;;;;;;5071095;28;19912;-57
2021/09/07 01:54:13;;;;;;;;;;;22.00;69.70;;;;;;5089708;28;19919;-59
2021/09/07 01:56:40;;;;;;;;;;;22.10;69.70;;;;;;5063618;28;20008;-59
2021/09/07 01:59:06;;;;;;;;;;;22.00;69.70;;;;;;5062664;28;19920;-57
2021/09/07 02:01:31;;;;;;;;;;;22.00;69.70;;;;;;5084239;28;19911;-57
2021/09/07 02:03:57;;;;;;;;;;;22.10;69.70;;;;;;5071522;28;19920;-56
2021/09/07 02:06:22;;;;;;;;;;;22.00;69.60;;;;;;5093872;28;19916;-54
2021/09/07 02:08:47;;;;;;;;;;;22.00;69.60;;;;;;5080807;28;20006;-54
2021/09/07 02:11:13;;;;;;;;;;;22.00;69.60;;;;;;5085584;28;20462;-57
2021/09/07 02:13:38;;;;;;;;;;;22.00;69.60;;;;;;5085803;28;20128;-55
2021/09/07 02:16:04;;;;;;;;;;;22.00;69.50;;;;;;5091705;28;19924;-55
2021/09/07 02:18:29;;;;;;;;;;;22.00;69.60;;;;;;5076498;28;19920;-59
2021/09/07 02:20:55;;;;;;;;;;;22.10;69.60;;;;;;5079173;28;20420;-55
2021/09/07 02:23:20;;;;;;;;;;;22.10;69.60;;;;;;5102603;28;20011;-58
2021/09/07 02:25:45;;;;;;;;;;;22.00;69.50;;;;;;5085769;28;19916;-51
2021/09/07 02:28:11;;;;;;;;;;;22.00;69.50;;;;;;5085697;28;19916;-58
2021/09/07 02:30:37;;;;;;;;;;;22.00;69.50;;;;;;5084044;28;20612;-62
2021/09/07 02:33:02;;;;;;;;;;;22.00;69.60;;;;;;5080698;28;19919;-56
2021/09/07 02:35:28;;;;;;;;;;;22.00;69.50;;;;;;5062561;28;19960;-56
2021/09/07 02:37:54;;;;;;;;;;;22.00;69.50;;;;;;5059398;28;20521;-55
2021/09/07 02:40:19;;;;;;;;;;;22.00;69.50;;;;;;5072045;28;19912;-52
2021/09/07 02:42:45;;;;;;;;;;;22.10;69.50;;;;;;5089111;28;20495;-59
2021/09/07 02:45:10;;;;;;;;;;;22.00;69.40;;;;;;5084075;28;19924;-53
2021/09/07 02:47:40;;;;;;;;;;;22.00;69.50;;;;;;5066913;28;20368;-59
2021/09/07 02:50:06;;;;;;;;;;;22.00;69.40;;;;;;5070132;28;20391;-59
2021/09/07 02:52:32;;;;;;;;;;;22.00;69.50;;;;;;5074025;28;19916;-56
2021/09/07 02:54:57;;;;;;;;;;;22.00;69.40;;;;;;5079734;28;20422;-58
2021/09/07 02:57:23;;;;;;;;;;;22.00;69.40;;;;;;5075259;28;19926;-54
2021/09/07 02:59:48;;;;;;;;;;;22.00;69.40;;;;;;5078789;28;19913;-54
2021/09/07 03:02:14;;;;;;;;;;;22.00;69.30;;;;;;5078564;28;19912;-58
2021/09/07 03:04:39;;;;;;;;;;;22.00;69.40;;;;;;5062413;28;20389;-53
2021/09/07 03:07:05;;;;;;;;;;;22.10;69.40;;;;;;5071735;28;19966;-59
2021/09/07 03:09:30;;;;;;;;;;;22.00;69.30;;;;;;5095277;28;19912;-63
2021/09/07 03:11:55;;;;;;;;;;;22.00;69.30;;;;;;5081549;28;19918;-51
2021/09/07 03:14:21;;;;;;;;;;;22.00;69.30;;;;;;5084978;28;19924;-54
2021/09/07 03:16:46;;;;;;;;;;;22.00;69.30;;;;;;5063576;28;20335;-60
2021/09/07 03:19:12;;;;;;;;;;;22.00;69.20;;;;;;5082911;28;19918;-54
2021/09/07 03:21:37;;;;;;;;;;;22.00;69.30;;;;;;5070759;28;19912;-60
2021/09/07 03:24:03;;;;;;;;;;;22.00;69.20;;;;;;5087727;28;20483;-62
2021/09/07 03:26:28;;;;;;;;;;;22.00;69.20;;;;;;5079303;28;20380;-58
2021/09/07 03:28:54;;;;;;;;;;;22.00;69.20;;;;;;5070803;28;19912;-58
2021/09/07 03:31:19;;;;;;;;;;;22.00;69.20;;;;;;5100802;28;19947;-60
2021/09/07 03:33:44;;;;;;;;;;;22.00;69.30;;;;;;5101359;28;19992;-56
2021/09/07 03:36:10;;;;;;;;;;;22.00;69.20;;;;;;5078411;28;19919;-57
2021/09/07 03:38:35;;;;;;;;;;;22.00;69.20;;;;;;5073354;28;19916;-61
2021/09/07 03:41:01;;;;;;;;;;;22.00;69.90;;;;;;5082238;28;19919;-62
2021/09/07 03:43:26;;;;;;;;;;;22.00;69.20;;;;;;5076182;28;19919;-58
2021/09/07 03:45:52;;;;;;;;;;;22.00;69.20;;;;;;5085305;28;19915;-61
2021/09/07 03:48:17;;;;;;;;;;;22.00;69.10;;;;;;5069924;28;20056;-61
2021/09/07 03:50:43;;;;;;;;;;;22.00;69.20;;;;;;5071597;28;20288;-57
2021/09/07 03:53:08;;;;;;;;;;;22.00;69.20;;;;;;5088422;28;19969;-55
2021/09/07 03:55:33;;;;;;;;;;;22.00;69.10;;;;;;5096088;28;19912;-57
2021/09/07 03:57:59;;;;;;;;;;;22.00;69.10;;;;;;5093128;28;20002;-52
2021/09/07 04:00:24;;;;;;;;;;;22.00;69.10;;;;;;5087896;28;20340;-54
2021/09/07 04:02:50;;;;;;;;;;;22.00;69.20;;;;;;5088930;28;20103;-58
2021/09/07 04:05:15;;;;;;;;;;;22.00;69.10;;;;;;5105039;28;19916;-56
2021/09/07 04:07:41;;;;;;;;;;;22.00;69.20;;;;;;5080821;28;19912;-55
2021/09/07 04:10:06;;;;;;;;;;;22.00;69.20;;;;;;5082727;28;19920;-53
2021/09/07 04:12:32;;;;;;;;;;;22.00;69.10;;;;;;5083810;28;19912;-58
2021/09/07 04:14:57;;;;;;;;;;;22.00;69.10;;;;;;5098448;22;19948;-60
2021/09/07 04:17:23;;;;;;;;;;;22.00;69.10;;;;;;5063856;28;19995;-60
2021/09/07 04:19:48;;;;;;;;;;;22.00;69.20;;;;;;5062190;28;19962;-60
2021/09/07 04:22:13;;;;;;;;;;;22.00;69.10;;;;;;5062120;28;20401;-60
2021/09/07 04:24:39;;;;;;;;;;;22.00;69.10;;;;;;5062445;28;19912;-58
2021/09/07 04:27:04;;;;;;;;;;;22.00;69.10;;;;;;5062814;28;19916;-58
2021/09/07 04:29:30;;;;;;;;;;;22.00;69.20;;;;;;5061959;28;19983;-59
2021/09/07 04:31:55;;;;;;;;;;;22.00;69.20;;;;;;5063490;28;19912;-60
2021/09/07 04:34:21;;;;;;;;;;;22.00;69.40;;;;;;5064369;28;19912;-60
2021/09/07 04:36:46;;;;;;;;;;;22.00;69.70;;;;;;5063667;28;19924;-60
2021/09/07 04:39:12;;;;;;;;;;;22.00;69.70;;;;;;5064185;28;20408;-60
2021/09/07 04:41:37;;;;;;;;;;;22.00;69.60;;;;;;5064311;28;19923;-60
2021/09/07 04:44:03;;;;;;;;;;;22.00;69.50;;;;;;5064308;28;19996;-60
2021/09/07 04:46:28;;;;;;;;;;;22.00;69.60;;;;;;5064345;28;20297;-60
2021/09/07 04:48:54;;;;;;;;;;;22.00;69.50;;;;;;5064176;28;19924;-60
2021/09/07 04:51:22;;;;;;;;;;;22.00;69.60;;;;;;5064839;28;19920;-58
2021/09/07 04:53:48;;;;;;;;;;;21.90;69.50;;;;;;5064289;28;19916;-58
2021/09/07 04:56:14;;;;;;;;;;;21.90;69.50;;;;;;5064375;28;19912;-57
2021/09/07 04:58:39;;;;;;;;;;;22.00;69.60;;;;;;5064966;28;19966;-60
2021/09/07 05:01:05;;;;;;;;;;;21.90;69.50;;;;;;5064416;28;19912;-59
2021/09/07 05:03:31;;;;;;;;;;;21.90;69.50;;;;;;5064823;28;20090;-59
2021/09/07 05:05:56;;;;;;;;;;;21.90;69.50;;;;;;5063039;28;20003;-59
2021/09/07 05:08:22;;;;;;;;;;;22.00;69.50;;;;;;5063487;28;19924;-57
2021/09/07 05:10:47;;;;;;;;;;;22.00;69.50;;;;;;5063594;28;19920;-57
2021/09/07 05:13:13;;;;;;;;;;;21.90;69.50;;;;;;5053372;28;20701;-60
2021/09/07 05:15:38;;;;;;;;;;;21.90;69.40;;;;;;5057342;28;19920;-60
2021/09/07 05:18:04;;;;;;;;;;;22.00;69.40;;;;;;5062945;28;19924;-60
2021/09/07 05:20:29;;;;;;;;;;;22.00;69.40;;;;;;5062822;28;19923;-61
2021/09/07 05:22:54;;;;;;;;;;;22.00;69.50;;;;;;5055827;28;19924;-60
2021/09/07 05:25:20;;;;;;;;;;;21.90;69.50;;;;;;5061373;28;20373;-58
2021/09/07 05:27:45;;;;;;;;;;;21.90;69.50;;;;;;5062041;28;19917;-59
2021/09/07 05:30:11;;;;;;;;;;;21.90;69.70;;;;;;5062404;28;19917;-59
2021/09/07 05:32:37;;;;;;;;;;;21.90;68.90;;;;;;5060002;28;19920;-59
2021/09/07 05:35:03;;;;;;;;;;;21.90;68.10;;;;;;5059585;28;20400;-59
2021/09/07 05:37:28;;;;;;;;;;;21.90;67.50;;;;;;5063658;28;20115;-59
2021/09/07 05:39:53;;;;;;;;;;;21.80;66.90;;;;;;5063259;28;20333;-60
2021/09/07 05:42:19;;;;;;;;;;;21.80;66.60;;;;;;5063371;28;19927;-58
2021/09/07 05:44:44;;;;;;;;;;;21.80;66.20;;;;;;5063412;28;19919;-60
2021/09/07 05:47:10;;;;;;;;;;;21.80;65.90;;;;;;5063549;28;19916;-59
2021/09/07 05:49:35;;;;;;;;;;;21.80;65.80;;;;;;5064146;28;20289;-59
2021/09/07 05:52:01;;;;;;;;;;;21.80;65.60;;;;;;5063188;28;19922;-58
2021/09/07 05:54:26;;;;;;;;;;;21.80;65.50;;;;;;5063184;28;19916;-58
2021/09/07 05:56:52;;;;;;;;;;;21.80;65.40;;;;;;5063208;28;19920;-58
2021/09/07 05:59:17;;;;;;;;;;;21.80;65.40;;;;;;5063314;28;19952;-59
2021/09/07 06:01:43;;;;;;;;;;;21.80;65.30;;;;;;5063500;28;19921;-58
2021/09/07 06:04:08;;;;;;;;;;;21.80;65.20;;;;;;5063830;28;19927;-59
2021/09/07 06:06:34;;;;;;;;;;;21.70;65.10;;;;;;5062540;28;20662;-58
2021/09/07 06:08:59;;;;;;;;;;;21.70;65.10;;;;;;5062582;28;19916;-59
2021/09/07 06:11:25;;;;;;;;;;;21.70;65.10;;;;;;5063360;28;19920;-58
2021/09/07 06:13:50;;;;;;;;;;;21.70;65.20;;;;;;5063253;28;19942;-59
2021/09/07 06:16:16;;;;;;;;;;;21.70;65.10;;;;;;5062097;28;19928;-59
2021/09/07 06:18:41;;;;;;;;;;;21.70;65.10;;;;;;5062643;28;19966;-59
2021/09/07 06:21:07;;;;;;;;;;;21.70;65.30;;;;;;5062730;28;19912;-59
2021/09/07 06:23:32;;;;;;;;;;;21.70;65.30;;;;;;5062561;28;19916;-59
2021/09/07 06:25:59;;;;;;;;;;;21.70;65.30;;;;;;5062440;28;19920;-58
2021/09/07 06:28:25;;;;;;;;;;;21.70;65.30;;;;;;5062808;28;19916;-59
2021/09/07 06:30:50;;;;;;;;;;;21.70;65.20;;;;;;5062640;28;19920;-59
2021/09/07 06:33:15;;;;;;;;;;;21.70;65.10;;;;;;5063065;28;19977;-58
2021/09/07 06:35:41;;;;;;;;;;;21.70;65.10;;;;;;5056879;28;19913;-58
2021/09/07 06:38:06;;;;;;;;;;;21.70;65.30;;;;;;5062892;28;20373;-58
2021/09/07 06:40:32;;;;;;;;;;;21.70;65.10;;;;;;5062361;28;19924;-58
2021/09/07 06:42:57;;;;;;;;;;;21.70;65.10;;;;;;5060940;28;19919;-57
2021/09/07 06:45:23;;;;;;;;;;;21.70;65.10;;;;;;5062381;28;19916;-59
2021/09/07 06:47:48;;;;;;;;;;;21.70;65.10;;;;;;5062220;28;19912;-58
2021/09/07 06:50:14;;;;;;;;;;;21.60;65.00;;;;;;5061316;28;19927;-58
2021/09/07 06:52:39;;;;;;;;;;;21.70;65.10;;;;;;5062610;28;20584;-64
2021/09/07 06:55:05;;;;;;;;;;;21.60;65.00;;;;;;5062392;28;19952;-58
2021/09/07 06:57:30;;;;;;;;;;;21.60;65.10;;;;;;5062413;28;20380;-58
2021/09/07 06:59:56;;;;;;;;;;;21.60;65.10;;;;;;5062278;28;19913;-59
2021/09/07 07:02:22;;;;;;;;;;;21.60;65.20;;;;;;5062303;28;19913;-58
2021/09/07 07:04:47;;;;;;;;;;;21.60;65.40;;;;;;5062959;28;19920;-59
2021/09/07 07:07:13;;;;;;;;;;;21.60;65.70;;;;;;5062779;28;20389;-59
2021/09/07 07:09:38;;;;;;;;;;;21.60;65.90;;;;;;5064505;28;19912;-59
2021/09/07 07:12:04;;;;;;;;;;;21.60;66.20;;;;;;5063612;28;19951;-57
2021/09/07 07:14:30;;;;;;;;;;;21.60;66.50;;;;;;5063122;28;19927;-57
2021/09/07 07:16:55;;;;;;;;;;;21.60;66.50;;;;;;5063213;28;19917;-59
2021/09/07 07:19:20;;;;;;;;;;;21.60;66.40;;;;;;5062161;28;19920;-58
2021/09/07 07:21:47;;;;;;;;;;;21.60;66.40;;;;;;5058453;28;19917;-56
2021/09/07 07:24:16;;;;;;;;;;;21.60;66.90;;;;;;5062549;28;20060;-55
2021/09/07 07:26:45;;;;;;;;;;;21.60;65.80;;;;;;5062709;28;19916;-58
2021/09/07 07:29:12;;;;;;;;;;;21.60;64.60;;;;;;5061719;28;19935;-57
2021/09/07 07:31:38;;;;;;;;;;;21.60;63.70;;;;;;5063676;28;19956;-59
2021/09/07 07:34:03;;;;;;;;;;;21.60;64.30;;;;;;5063678;28;20304;-59
2021/09/07 07:36:29;;;;;;;;;;;21.60;64.60;;;;;;5062285;28;19920;-58
2021/09/07 07:38:54;;;;;;;;;;;21.60;64.80;;;;;;5063360;28;19956;-58
2021/09/07 07:41:20;;;;;;;;;;;21.60;64.70;;;;;;5064793;28;20506;-58
2021/09/07 07:43:46;;;;;;;;;;;21.50;64.80;;;;;;5064502;28;19927;-54
2021/09/07 07:46:15;;;;;;;;;;;21.50;64.80;;;;;;5064954;28;19952;-59
2021/09/07 07:48:41;;;;;;;;;;;21.50;65.00;;;;;;5064292;28;20412;-56
2021/09/07 07:51:07;;;;;;;;;;;21.50;65.00;;;;;;5063414;28;19919;-58
2021/09/07 07:53:32;;;;;;;;;;;21.50;65.10;;;;;;5063795;28;19945;-58
2021/09/07 07:55:58;;;;;;;;;;;21.50;65.20;;;;;;5062246;28;19913;-59
2021/09/07 07:58:23;;;;;;;;;;;21.60;65.20;;;;;;5062305;28;19920;-57
2021/09/07 08:00:49;;;;;;;;;;;21.50;65.10;;;;;;5063166;28;20296;-58
2021/09/07 08:03:14;;;;;;;;;;;21.50;65.10;;;;;;5064740;28;19917;-58
2021/09/07 08:05:39;;;;;;;;;;;21.50;65.10;;;;;;5064988;28;19913;-59
2021/09/07 08:08:07;;;;;;;;;;;21.50;65.20;;;;;;5064428;28;19912;-59
2021/09/07 08:10:33;;;;;;;;;;;21.50;64.90;;;;;;5064181;28;19920;-58
2021/09/07 08:12:58;;;;;;;;;;;21.50;65.20;;;;;;5064093;28;19917;-56
2021/09/07 08:15:24;;;;;;;;;;;21.40;65.20;;;;;;5062607;28;19982;-59
2021/09/07 08:17:50;;;;;;;;;;;21.40;65.40;;;;;;5064319;28;20160;-58
2021/09/07 08:20:15;;;;;;;;;;;21.50;65.50;;;;;;5063760;28;19913;-58
2021/09/07 08:22:41;;;;;;;;;;;21.40;65.50;;;;;;5064204;28;19916;-57
2021/09/07 08:25:06;;;;;;;;;;;21.40;65.70;;;;;;5064670;28;19916;-58
2021/09/07 08:27:32;;;;;;;;;;;21.40;65.70;;;;;;5063692;28;19959;-58
2021/09/07 08:29:57;;;;;;;;;;;21.50;65.30;;;;;;5063921;28;20015;-58
2021/09/07 08:32:23;;;;;;;;;;;21.40;65.50;;;;;;5062212;28;19924;-56
2021/09/07 08:34:48;;;;;;;;;;;21.50;65.20;;;;;;5062475;28;19920;-54
2021/09/07 08:37:14;;;;;;;;;;;21.50;65.30;;;;;;5063655;28;20377;-57
2021/09/07 08:39:39;;;;;;;;;;;21.40;62.80;;;;;;5063912;28;19935;-58
2021/09/07 08:42:06;;;;;;;;;;;21.40;63.10;;;;;;5062235;28;19969;-59
2021/09/07 08:44:31;;;;;;;;;;;21.40;63.50;;;;;;5061487;28;20011;-57
2021/09/07 08:46:57;;;;;;;;;;;21.40;64.20;;;;;;5062678;28;19940;-57
2021/09/07 08:49:22;;;;;;;;;;;21.40;64.30;;;;;;5063104;28;19912;-59
2021/09/07 08:51:48;;;;;;;;;;;21.40;64.60;;;;;;5063827;28;19928;-58
2021/09/07 08:54:14;;;;;;;;;;;21.40;64.60;;;;;;5063665;28;19998;-57
2021/09/07 08:56:41;;;;;;;;;;;21.40;64.90;;;;;;5063704;28;20005;-58
2021/09/07 08:59:07;;;;;;;;;;;21.40;64.80;;;;;;5063074;28;19944;-56
2021/09/07 09:01:38;;;;;;;;;;;21.30;64.60;;;;;;5063359;28;19956;-59
2021/09/07 09:04:03;;;;;;;;;;;21.40;64.60;;;;;;5064418;28;20472;-58
2021/09/07 09:06:29;;;;;;;;;;;21.30;64.60;;;;;;5064443;28;20006;-58
2021/09/07 09:09:01;;;;;;;;;;;21.40;64.50;;;;;;5063038;28;19916;-58
2021/09/07 09:11:26;;;;;;;;;;;21.40;64.40;;;;;;5064213;28;19920;-58
2021/09/07 09:13:52;;;;;;;;;;;21.40;64.60;;;;;;5064181;28;20265;-59
2021/09/07 09:16:17;;;;;;;;;;;21.40;64.30;;;;;;5062638;28;19929;-59
2021/09/07 09:18:43;;;;;;;;;;;21.40;64.30;;;;;;5063700;28;19923;-57
2021/09/07 09:21:28;;;;;;;;;;;21.40;64.20;;;;;;5069124;28;19912;-58
2021/09/07 09:24:11;;;;;;;;;;;21.30;64.30;;;;;;5056814;28;19916;-59
2021/09/07 09:26:52;;;;;;;;;;;21.30;64.50;;;;;;5063545;28;19912;-59
2021/09/07 09:29:21;;;;;;;;;;;21.30;64.60;;;;;;5063385;28;19939;-59
2021/09/07 09:31:50;;;;;;;;;;;21.40;63.50;;;;;;5063917;28;19962;-58
2021/09/07 09:34:16;;;;;;;;;;;21.40;63.80;;;;;;5061257;28;20289;-59
2021/09/07 09:36:46;;;;;;;;;;;21.30;63.90;;;;;;5063866;28;19920;-57
2021/09/07 09:39:12;;;;;;;;;;;21.30;64.20;;;;;;5062949;28;19956;-58
2021/09/07 09:41:50;;;;;;;;;;;21.40;63.40;;;;;;5062783;28;19918;-59
2021/09/07 09:44:15;;;;;;;;;;;21.40;63.40;;;;;;5062018;28;19924;-57
2021/09/07 09:46:41;;;;;;;;;;;21.40;63.60;;;;;;5061458;28;20305;-62
2021/09/07 09:49:13;;;;;;;;;;;21.40;63.60;;;;;;5063573;28;19917;-58
2021/09/07 09:51:39;;;;;;;;;;;21.40;63.10;;;;;;5062886;28;19913;-57
2021/09/07 09:54:05;;;;;;;;;;;21.40;63.50;;;;;;5063030;28;19917;-59
2021/09/07 09:56:30;;;;;;;;;;;21.40;63.80;;;;;;5061650;28;20292;-58
2021/09/07 09:58:55;;;;;;;;;;;21.40;63.60;;;;;;5060725;28;19952;-58
2021/09/07 10:01:21;;;;;;;;;;;21.30;64.00;;;;;;5061198;28;19917;-58
2021/09/07 10:03:46;;;;;;;;;;;21.30;62.90;;;;;;5062038;28;19920;-59
2021/09/07 10:06:12;;;;;;;;;;;21.30;63.70;;;;;;5060422;28;20213;-58
2021/09/07 10:08:41;;;;;;;;;;;21.30;63.70;;;;;;5060516;28;19919;-59
2021/09/07 10:11:07;;;;;;;;;;;21.30;63.80;;;;;;5061746;28;19920;-58
2021/09/07 10:13:33;;;;;;;;;;;21.40;62.90;;;;;;5060222;28;19912;-59
2021/09/07 10:16:08;;;;;;;;;;;21.30;63.10;;;;;;5085180;22;20319;-56
2021/09/07 10:18:48;;;;;;;;;;;21.40;62.60;;;;;;5077136;28;19916;-55
2021/09/07 10:24:00;;;;;;;;;;;21.30;63.40;;;;;;5090079;28;20296;-55
2021/09/07 10:26:38;;;;;;;;;;;21.20;62.10;;;;;;5065805;28;19919;-52
2021/09/07 10:29:05;;;;;;;;;;;21.20;61.80;;;;;;5073639;28;19912;-54
2021/09/07 10:31:38;;;;;;;;;;;21.30;62.90;;;;;;5076892;28;19927;-55
2021/09/07 10:34:03;;;;;;;;;;;21.20;63.00;;;;;;5072067;28;19912;-56
2021/09/07 10:36:31;;;;;;;;;;;21.30;63.00;;;;;;5047882;28;19912;-58
2021/09/07 10:39:01;;;;;;;;;;;21.20;63.20;;;;;;5068726;28;19920;-51
2021/09/07 10:41:32;;;;;;;;;;;21.20;62.70;;;;;;5057517;28;19927;-55
2021/09/07 10:44:05;;;;;;;;;;;21.30;63.30;;;;;;5075718;28;19912;-53
2021/09/07 10:46:39;;;;;;;;;;;21.20;63.50;;;;;;5046430;28;19913;-55
2021/09/07 10:49:13;;;;;;;;;;;21.30;63.90;;;;;;5044009;28;20003;-52
2021/09/07 10:51:57;;;;;;;;;;;21.20;63.70;;;;;;5071167;28;20518;-50
2021/09/07 10:54:24;;;;;;;;;;;21.20;61.10;;;;;;5063213;28;20361;-56
2021/09/07 10:56:49;;;;;;;;;;;21.20;63.20;;;;;;5069982;28;19919;-58
2021/09/07 10:59:41;;;;;;;;;;;21.30;63.20;;;;;;5079620;28;20435;-56
2021/09/07 11:02:25;;;;;;;;;;;21.20;63.10;;;;;;5069609;28;19999;-51
2021/09/07 11:04:51;;;;;;;;;;;21.20;63.20;;;;;;5063066;28;19912;-54
2021/09/07 11:07:35;;;;;;;;;;;21.30;63.10;;;;;;5072865;28;20274;-56
2021/09/07 11:10:00;;;;;;;;;;;21.20;63.30;;;;;;5073164;28;19912;-53
2021/09/07 11:12:26;;;;;;;;;;;21.20;63.60;;;;;;5054918;28;20353;-52
2021/09/07 11:15:05;;;;;;;;;;;21.20;63.40;;;;;;5072581;28;19920;-51
2021/09/07 11:17:31;;;;;;;;;;;21.20;63.40;;;;;;5071771;28;19920;-56
2021/09/07 11:19:57;;;;;;;;;;;21.20;62.60;;;;;;5068345;28;19949;-57
2021/09/07 11:22:25;;;;;;;;;;;21.20;60.70;;;;;;5063595;28;20404;-60
2021/09/07 11:25:00;;;;;;;;;;;21.30;61.40;;;;;;5054203;28;20035;-60
2021/09/07 11:27:25;;;;;;;;;;;21.30;62.20;;;;;;5051977;28;20370;-53
2021/09/07 11:29:51;;;;;;;;;;;21.20;59.30;;;;;;5042504;28;19917;-53
2021/09/07 11:32:22;;;;;;;;;;;21.20;61.90;;;;;;5070073;28;20336;-53
2021/09/07 11:35:06;;;;;;;;;;;21.20;62.80;;;;;;5069200;28;19916;-56
2021/09/07 11:37:32;;;;;;;;;;;21.30;62.60;;;;;;5066226;28;20019;-55
2021/09/07 11:40:07;;;;;;;;;;;21.30;62.00;;;;;;5072658;28;19912;-53
2021/09/07 11:42:47;;;;;;;;;;;21.20;61.30;;;;;;5064388;28;19962;-56
2021/09/07 11:45:16;;;;;;;;;;;21.20;61.60;;;;;;5062505;28;20037;-56
2021/09/07 11:47:45;;;;;;;;;;;21.20;61.40;;;;;;5054327;28;19912;-52
2021/09/07 11:50:17;;;;;;;;;;;21.20;61.70;;;;;;5075673;28;19956;-57
2021/09/07 11:52:49;;;;;;;;;;;21.20;62.10;;;;;;5036849;28;19920;-59
2021/09/07 11:55:33;;;;;;;;;;;21.20;62.30;;;;;;5014375;28;19928;-57
2021/09/07 11:57:59;;;;;;;;;;;21.20;62.30;;;;;;5045760;28;19917;-59
2021/09/07 12:00:24;;;;;;;;;;;21.20;61.40;;;;;;5057240;28;20224;-55
2021/09/07 12:03:08;;;;;;;;;;;21.20;61.30;;;;;;5053234;28;19919;-56
2021/09/07 12:05:56;;;;;;;;;;;21.20;61.40;;;;;;5062421;28;19916;-56
2021/09/07 12:08:32;;;;;;;;;;;21.20;61.60;;;;;;5040092;28;19920;-58
2021/09/07 12:10:57;;;;;;;;;;;21.20;61.60;;;;;;5062309;28;19912;-59
2021/09/07 12:13:23;;;;;;;;;;;21.20;60.20;;;;;;5054750;28;20327;-57
2021/09/07 12:15:48;;;;;;;;;;;21.20;60.40;;;;;;5053709;28;19924;-60
2021/09/07 12:18:34;;;;;;;;;;;21.20;61.00;;;;;;5059836;28;19920;-60
2021/09/07 12:21:08;;;;;;;;;;;21.30;57.10;;;;;;5069890;28;20447;-51
2021/09/07 12:23:34;;;;;;;;;;;21.30;59.90;;;;;;5060243;28;20203;-59
2021/09/07 12:26:02;;;;;;;;;;;21.20;58.20;;;;;;5049691;28;19999;-55
2021/09/07 12:28:27;;;;;;;;;;;21.20;59.30;;;;;;5064438;28;19976;-53
2021/09/07 12:31:08;;;;;;;;;;;21.20;60.40;;;;;;5076544;28;19970;-56
2021/09/07 12:33:39;;;;;;;;;;;21.30;59.30;;;;;;5045642;28;20011;-54
2021/09/07 12:36:05;;;;;;;;;;;21.30;60.40;;;;;;5079530;28;19977;-56
2021/09/07 12:38:32;;;;;;;;;;;21.20;60.40;;;;;;5059758;28;19922;-59
2021/09/07 12:41:01;;;;;;;;;;;21.20;60.70;;;;;;5055071;28;19947;-52
2021/09/07 12:43:27;;;;;;;;;;;21.20;60.90;;;;;;5066375;28;19931;-58
2021/09/07 12:45:54;;;;;;;;;;;21.20;61.10;;;;;;5049302;28;19913;-57
2021/09/07 12:48:19;;;;;;;;;;;21.20;61.10;;;;;;5059417;28;19996;-55
2021/09/07 12:50:45;;;;;;;;;;;21.20;60.80;;;;;;5076536;28;19916;-58
2021/09/07 12:53:10;;;;;;;;;;;21.20;61.00;;;;;;5066391;28;19912;-53
2021/09/07 12:55:39;;;;;;;;;;;21.20;60.60;;;;;;5063819;28;20382;-59
2021/09/07 12:58:07;;;;;;;;;;;21.20;60.80;;;;;;5069393;28;19920;-56
2021/09/07 13:00:34;;;;;;;;;;;21.20;60.00;;;;;;5082861;28;19919;-51
2021/09/07 13:02:59;;;;;;;;;;;21.20;60.10;;;;;;5053245;28;19966;-59
2021/09/07 13:05:24;;;;;;;;;;;21.20;60.60;;;;;;5082242;28;19940;-61
2021/09/07 13:07:50;;;;;;;;;;;21.20;60.70;;;;;;5035753;28;19912;-61
2021/09/07 13:10:15;;;;;;;;;;;21.20;60.60;;;;;;5057597;28;20308;-62
2021/09/07 13:12:41;;;;;;;;;;;21.20;60.90;;;;;;5066525;28;19922;-55
2021/09/07 13:15:06;;;;;;;;;;;21.20;61.50;;;;;;5083361;28;20025;-58
2021/09/07 13:17:32;;;;;;;;;;;21.20;60.10;;;;;;5045870;28;19916;-57
2021/09/07 13:19:57;;;;;;;;;;;21.30;58.80;;;;;;5070320;28;20308;-58
2021/09/07 13:22:23;;;;;;;;;;;21.30;60.30;;;;;;5063077;28;19916;-53
2021/09/07 13:24:48;;;;;;;;;;;21.20;60.80;;;;;;5070998;28;19924;-60
2021/09/07 13:27:14;;;;;;;;;;;21.30;61.60;;;;;;5084559;28;20437;-58
2021/09/07 13:29:39;;;;;;;;;;;21.20;60.60;;;;;;5066628;28;19912;-54
2021/09/07 13:32:05;;;;;;;;;;;21.20;61.20;;;;;;5056085;28;19916;-54
2021/09/07 13:34:30;;;;;;;;;;;21.30;60.20;;;;;;5056052;28;20043;-56
2021/09/07 13:36:56;;;;;;;;;;;21.30;61.30;;;;;;5069290;28;19920;-54
2021/09/07 13:39:21;;;;;;;;;;;21.30;61.10;;;;;;5059447;28;19923;-54
2021/09/07 13:41:47;;;;;;;;;;;21.20;61.60;;;;;;5070381;28;20530;-53
2021/09/07 13:44:12;;;;;;;;;;;21.20;61.80;;;;;;5058276;28;19924;-57
2021/09/07 13:46:37;;;;;;;;;;;21.20;61.80;;;;;;5077928;28;19913;-59
2021/09/07 13:49:03;;;;;;;;;;;21.20;61.70;;;;;;5061590;28;19919;-53
2021/09/07 13:51:29;;;;;;;;;;;21.30;60.80;;;;;;5061654;28;20262;-56
2021/09/07 13:53:54;;;;;;;;;;;21.30;60.20;;;;;;5071264;28;20377;-61
2021/09/07 13:56:20;;;;;;;;;;;21.30;61.30;;;;;;5056313;28;19912;-58
2021/09/07 13:58:45;;;;;;;;;;;21.30;61.30;;;;;;5058749;28;20019;-58
2021/09/07 14:01:11;;;;;;;;;;;21.20;61.60;;;;;;5066325;28;19921;-58
2021/09/07 14:03:36;;;;;;;;;;;21.30;62.10;;;;;;5023676;28;19924;-53
2021/09/07 14:06:02;;;;;;;;;;;21.30;62.50;;;;;;5078747;28;19951;-53
2021/09/07 14:08:28;;;;;;;;;;;21.20;62.30;;;;;;5057312;28;19919;-55
2021/09/07 14:10:58;;;;;;;;;;;21.30;62.30;;;;;;5081456;28;19916;-53
2021/09/07 14:13:24;;;;;;;;;;;21.20;62.40;;;;;;5043673;28;20021;-55
2021/09/07 14:15:49;;;;;;;;;;;21.30;61.30;;;;;;5073083;28;19924;-53